Time;durP1;ratioP1;P1;durP2;ratioP2;P2;SDS_P1;SDS_P2;PMS_P1;PMS_P2;Temp;Humidity;BMP_temperature;BMP_pressure;BME280_temperature;BME280_humidity;BME280_pressure;Samples;Min_cycle;Max_cycle;Signal;HPM_P1;HPM_P2
2022/10/18 00:00:32;;;;;;;7.07;2.80;;;;;;;12.24;100.00;96797.63;5011506;28;24429;-73
2022/10/18 00:02:59;;;;;;;5.75;2.65;;;;;;;12.25;100.00;96790.66;5015593;28;24443;-74
2022/10/18 00:05:25;;;;;;;9.30;2.90;;;;;;;12.18;100.00;96790.16;5019491;28;24437;-73
2022/10/18 00:07:52;;;;;;;7.10;2.80;;;;;;;12.25;100.00;96786.31;5018619;28;24429;-73
2022/10/18 00:10:18;;;;;;;9.37;3.10;;;;;;;12.31;100.00;96772.13;5012721;28;24493;-73
2022/10/18 00:12:45;;;;;;;9.87;3.20;;;;;;;12.14;100.00;96772.22;5012263;28;24444;-74
2022/10/18 00:15:13;;;;;;;8.52;2.90;;;;;;;11.93;100.00;96776.78;5022007;28;25012;-73
2022/10/18 00:17:39;;;;;;;9.67;3.10;;;;;;;11.73;100.00;96781.22;5018082;28;24535;-73
2022/10/18 00:20:07;;;;;;;6.07;3.03;;;;;;;11.68;100.00;96779.75;5020891;28;24447;-73
2022/10/18 00:22:34;;;;;;;14.35;3.58;;;;;;;11.82;100.00;96785.91;5016107;28;24516;-74
2022/10/18 00:25:00;;;;;;;7.28;3.10;;;;;;;11.83;100.00;96779.84;5016142;28;24436;-73
2022/10/18 00:27:29;;;;;;;6.43;3.25;;;;;;;11.89;100.00;96783.03;5015180;28;24444;-73
2022/10/18 00:29:55;;;;;;;4.38;2.90;;;;;;;11.96;100.00;96779.22;5023085;28;24435;-74
2022/10/18 00:32:23;;;;;;;5.82;2.97;;;;;;;11.98;100.00;96783.41;5017692;28;24448;-73
2022/10/18 00:34:50;;;;;;;5.78;3.15;;;;;;;11.95;100.00;96780.97;5015119;28;24443;-73
2022/10/18 00:37:17;;;;;;;6.68;3.13;;;;;;;12.02;100.00;96779.75;5018287;28;24436;-73
2022/10/18 00:39:43;;;;;;;6.03;3.40;;;;;;;11.93;100.00;96784.56;5012126;28;24468;-73
2022/10/18 00:42:11;;;;;;;7.63;4.18;;;;;;;11.94;100.00;96783.63;5011606;28;24428;-73
2022/10/18 00:45:07;;;;;;;19.27;4.57;;;;;;;11.91;100.00;96783.81;5014609;28;24451;-73
2022/10/18 00:47:35;;;;;;;9.18;4.65;;;;;;;11.90;100.00;96792.50;4995061;28;24455;-73
2022/10/18 00:50:04;;;;;;;7.90;4.03;;;;;;;11.96;100.00;96789.59;5016733;28;24439;-74
2022/10/18 00:52:34;;;;;;;10.13;4.15;;;;;;;12.04;100.00;96783.06;5016494;28;24433;-73
2022/10/18 00:55:01;;;;;;;9.45;3.42;;;;;;;12.03;100.00;96786.59;5016547;28;24435;-73
2022/10/18 00:57:28;;;;;;;10.75;3.50;;;;;;;12.07;100.00;96785.50;5017765;28;24440;-73
2022/10/18 00:59:55;;;;;;;6.75;3.47;;;;;;;12.08;100.00;96783.75;5013439;28;24458;-73
2022/10/18 01:02:22;;;;;;;6.37;3.07;;;;;;;12.11;100.00;96791.38;5017982;28;24432;-73
2022/10/18 01:04:50;;;;;;;8.20;2.72;;;;;;;12.14;100.00;96783.44;5011640;28;24442;-73
2022/10/18 01:07:28;;;;;;;5.18;3.00;;;;;;;12.13;100.00;96793.91;5011413;28;24440;-74
2022/10/18 01:10:02;;;;;;;4.73;3.00;;;;;;;12.18;100.00;96794.50;5012588;28;25056;-73
2022/10/18 01:12:40;;;;;;;5.65;2.72;;;;;;;12.15;100.00;96787.72;5013573;28;24850;-74
2022/10/18 01:15:12;;;;;;;5.93;2.85;;;;;;;12.26;100.00;96795.78;5006382;28;24446;-72
2022/10/18 01:17:55;;;;;;;4.78;2.60;;;;;;;12.32;100.00;96792.84;5010661;28;24997;-74
2022/10/18 01:20:59;;;;;;;4.32;2.65;;;;;;;12.35;100.00;96795.28;5004964;28;24433;-72
2022/10/18 01:23:56;;;;;;;5.38;2.70;;;;;;;12.40;100.00;96789.00;4996952;28;24436;-73
2022/10/18 01:26:38;;;;;;;6.00;2.37;;;;;;;12.46;100.00;96786.94;4994284;28;24431;-73
2022/10/18 01:29:27;;;;;;;9.85;3.00;;;;;;;12.51;100.00;96797.06;5014270;28;24428;-73
2022/10/18 01:31:59;;;;;;;6.50;2.37;;;;;;;12.56;100.00;96788.09;5014995;28;24443;-73
2022/10/18 01:34:28;;;;;;;7.18;3.00;;;;;;;12.61;100.00;96790.44;5007027;28;24986;-73
2022/10/18 01:36:56;;;;;;;3.53;2.47;;;;;;;12.58;100.00;96782.81;5018660;28;24806;-73
2022/10/18 01:39:28;;;;;;;4.90;2.70;;;;;;;12.52;100.00;96780.53;5010948;28;25022;-73
2022/10/18 01:41:57;;;;;;;7.78;3.00;;;;;;;12.52;100.00;96786.56;5008598;28;24432;-72
2022/10/18 01:44:26;;;;;;;3.55;2.28;;;;;;;12.43;100.00;96781.88;5009353;28;25319;-73
2022/10/18 01:46:56;;;;;;;6.22;2.90;;;;;;;12.40;100.00;96770.81;5018574;28;24431;-73
2022/10/18 01:49:24;;;;;;;4.60;2.97;;;;;;;12.45;100.00;96777.44;5013601;28;24425;-73
2022/10/18 01:51:50;;;;;;;5.57;2.88;;;;;;;12.57;100.00;96773.34;5010439;28;24516;-73
2022/10/18 01:54:21;;;;;;;7.07;3.50;;;;;;;12.59;100.00;96774.09;5013120;28;24447;-73
2022/10/18 01:56:57;;;;;;;3.97;3.10;;;;;;;12.52;100.00;96770.97;5014391;28;24794;-74
2022/10/18 01:59:39;;;;;;;7.97;3.30;;;;;;;12.42;100.00;96772.44;5002297;28;25101;-73
2022/10/18 02:02:18;;;;;;;5.35;2.90;;;;;;;12.41;100.00;96770.72;5010270;28;24432;-73
2022/10/18 02:04:52;;;;;;;6.90;3.67;;;;;;;12.51;100.00;96769.31;5013448;28;24441;-73
2022/10/18 02:07:27;;;;;;;5.45;3.08;;;;;;;12.44;100.00;96765.38;5003955;28;24443;-74
2022/10/18 02:10:01;;;;;;;6.17;3.70;;;;;;;12.41;100.00;96762.94;5011095;28;26364;-73
2022/10/18 02:12:32;;;;;;;6.72;3.50;;;;;;;12.44;100.00;96752.38;5007081;28;24981;-72
2022/10/18 02:15:00;;;;;;;10.45;3.58;;;;;;;12.37;100.00;96755.41;5018683;28;24443;-72
2022/10/18 02:17:30;;;;;;;5.88;3.10;;;;;;;12.41;100.00;96754.31;5011518;28;24447;-73
2022/10/18 02:19:57;;;;;;;6.82;2.80;;;;;;;12.30;100.00;96750.53;5011139;28;24452;-74
2022/10/18 02:22:27;;;;;;;5.40;2.78;;;;;;;12.24;100.00;96757.84;5009565;28;24451;-73
2022/10/18 02:24:57;;;;;;;13.73;3.03;;;;;;;12.32;100.00;96753.88;4989958;28;803735;-73
2022/10/18 02:27:24;;;;;;;9.95;3.03;;;;;;;12.23;100.00;96753.53;5007888;28;24447;-72
2022/10/18 02:29:52;;;;;;;7.70;3.08;;;;;;;12.29;100.00;96746.25;5019752;28;24440;-73
2022/10/18 02:32:26;;;;;;;4.47;2.45;;;;;;;12.35;100.00;96748.53;5007852;28;24468;-72
2022/10/18 02:34:59;;;;;;;7.50;2.80;;;;;;;12.38;100.00;96746.69;5009930;28;24503;-72
2022/10/18 02:37:30;;;;;;;4.20;2.50;;;;;;;12.37;100.00;96748.44;5007207;28;24432;-73
2022/10/18 02:39:57;;;;;;;11.32;3.00;;;;;;;12.15;100.00;96742.72;5012020;28;24448;-74
2022/10/18 02:42:24;;;;;;;7.05;3.15;;;;;;;11.95;100.00;96748.97;5008385;28;25013;-73
2022/10/18 02:44:50;;;;;;;8.43;3.13;;;;;;;11.91;100.00;96747.47;5014102;28;24447;-73
2022/10/18 02:47:17;;;;;;;5.80;2.90;;;;;;;11.98;100.00;96743.63;5010239;28;24447;-73
2022/10/18 02:49:43;;;;;;;5.50;2.80;;;;;;;12.02;100.00;96740.78;5013176;28;24428;-74
2022/10/18 02:52:11;;;;;;;7.18;2.75;;;;;;;12.07;100.00;96737.94;5011005;28;24471;-73
2022/10/18 02:54:37;;;;;;;9.30;2.63;;;;;;;11.99;100.00;96747.91;5004251;28;24440;-74
2022/10/18 02:57:04;;;;;;;9.30;2.90;;;;;;;12.05;100.00;96745.81;5010265;28;24436;-73
2022/10/18 02:59:30;;;;;;;4.43;2.67;;;;;;;12.09;100.00;96747.34;5006673;28;24546;-73
2022/10/18 03:01:57;;;;;;;7.20;3.08;;;;;;;12.07;100.00;96743.97;5006663;28;25001;-72
2022/10/18 03:04:23;;;;;;;4.07;2.50;;;;;;;12.11;100.00;96744.66;5007119;28;24471;-73
2022/10/18 03:06:50;;;;;;;8.52;3.13;;;;;;;11.93;100.00;96743.03;5002998;28;24447;-73
2022/10/18 03:09:18;;;;;;;4.55;2.63;;;;;;;12.00;100.00;96749.56;5008653;28;24428;-73
2022/10/18 03:11:44;;;;;;;4.57;2.60;;;;;;;11.96;100.00;96750.66;5010934;28;24432;-73
2022/10/18 03:14:11;;;;;;;6.57;2.65;;;;;;;11.93;100.00;96749.06;5002310;28;24444;-73
2022/10/18 03:16:37;;;;;;;6.03;3.10;;;;;;;11.82;100.00;96749.56;5009754;28;24945;-72
2022/10/18 03:19:04;;;;;;;6.60;2.75;;;;;;;11.88;100.00;96747.63;5012514;28;24447;-73
2022/10/18 03:21:30;;;;;;;7.53;2.70;;;;;;;11.84;100.00;96744.34;5011664;28;24432;-73
2022/10/18 03:23:57;;;;;;;4.93;2.85;;;;;;;11.84;100.00;96742.59;5002164;28;24440;-73
2022/10/18 03:26:25;;;;;;;6.90;3.00;;;;;;;11.71;100.00;96741.50;5003351;28;24549;-72
2022/10/18 03:28:52;;;;;;;5.78;2.83;;;;;;;11.67;100.00;96749.53;5007027;28;24434;-73
2022/10/18 03:31:18;;;;;;;5.82;2.50;;;;;;;11.66;100.00;96747.88;5009701;28;24443;-73
2022/10/18 03:33:45;;;;;;;5.70;2.93;;;;;;;11.59;100.00;96742.16;5002047;28;24444;-73
2022/10/18 03:36:12;;;;;;;7.95;2.85;;;;;;;11.56;100.00;96742.31;5010327;28;24440;-73
2022/10/18 03:38:38;;;;;;;7.65;2.90;;;;;;;11.63;100.00;96744.50;5013462;28;24707;-73
2022/10/18 03:41:05;;;;;;;6.53;2.90;;;;;;;11.60;100.00;96736.88;5013116;28;24981;-73
2022/10/18 03:43:33;;;;;;;14.32;3.40;;;;;;;11.51;100.00;96741.72;5008633;28;24447;-73
2022/10/18 03:45:59;;;;;;;6.05;2.90;;;;;;;11.46;100.00;96736.75;5015574;28;24432;-73
2022/10/18 03:48:26;;;;;;;5.25;2.80;;;;;;;11.47;100.00;96741.03;5017889;28;24989;-73
2022/10/18 03:50:52;;;;;;;6.28;2.50;;;;;;;11.55;100.00;96751.84;5014605;28;24432;-73
2022/10/18 03:53:19;;;;;;;5.93;2.67;;;;;;;11.62;100.00;96749.78;5014810;28;24459;-74
2022/10/18 03:55:50;;;;;;;6.40;2.83;;;;;;;11.61;100.00;96748.94;5008401;28;24447;-73
2022/10/18 03:58:17;;;;;;;5.85;2.90;;;;;;;11.53;100.00;96750.22;5010431;28;24436;-73
2022/10/18 04:00:45;;;;;;;4.97;2.47;;;;;;;11.50;100.00;96747.81;5011941;28;25023;-73
2022/10/18 04:03:11;;;;;;;5.82;3.17;;;;;;;11.56;100.00;96742.31;5008402;28;24473;-72
2022/10/18 04:05:38;;;;;;;7.97;2.80;;;;;;;11.68;100.00;96748.59;5010708;28;24464;-72
2022/10/18 04:08:05;;;;;;;3.85;2.40;;;;;;;11.71;100.00;96743.28;5009721;28;24440;-73
2022/10/18 04:10:31;;;;;;;4.28;2.72;;;;;;;11.74;100.00;96740.53;5015746;28;24529;-73
2022/10/18 04:12:58;;;;;;;4.10;2.85;;;;;;;11.79;100.00;96746.31;5022378;28;24462;-73
2022/10/18 04:15:24;;;;;;;5.00;2.60;;;;;;;11.81;100.00;96741.88;5012652;28;24456;-73
2022/10/18 04:17:52;;;;;;;3.67;2.75;;;;;;;11.84;100.00;96745.19;5012332;28;24446;-73
2022/10/18 04:20:19;;;;;;;6.75;3.00;;;;;;;11.71;100.00;96744.09;5016968;28;24456;-72
2022/10/18 04:22:48;;;;;;;3.30;2.53;;;;;;;11.82;100.00;96746.16;5016631;28;24813;-73
2022/10/18 04:25:14;;;;;;;6.67;2.93;;;;;;;11.82;100.00;96741.78;5024651;22;24939;-74
2022/10/18 04:27:41;;;;;;;3.53;2.27;;;;;;;11.86;100.00;96743.38;5039382;28;24525;-73
2022/10/18 04:30:08;;;;;;;5.22;2.60;;;;;;;11.89;100.00;96751.91;5042556;28;24574;-73
2022/10/18 04:32:35;;;;;;;5.22;2.60;;;;;;;11.90;100.00;96745.78;5049381;28;24431;-73
2022/10/18 04:35:03;;;;;;;5.28;2.83;;;;;;;11.81;100.00;96744.47;5043865;28;24433;-73
2022/10/18 04:37:29;;;;;;;4.83;2.77;;;;;;;11.86;100.00;96753.75;5031973;28;24436;-74
2022/10/18 04:39:56;;;;;;;6.10;2.88;;;;;;;11.87;100.00;96757.19;5033256;28;24452;-74
2022/10/18 04:42:23;;;;;;;5.35;2.50;;;;;;;11.76;100.00;96765.50;5032922;28;24872;-73
2022/10/18 04:44:50;;;;;;;10.93;2.38;;;;;;;11.69;100.00;96760.69;5026152;28;24436;-73
2022/10/18 04:47:17;;;;;;;4.00;2.42;;;;;;;11.61;100.00;96756.72;5028763;28;25011;-73
2022/10/18 04:49:43;;;;;;;2.90;2.30;;;;;;;11.63;100.00;96764.41;5032452;28;24515;-75
2022/10/18 04:52:11;;;;;;;4.63;2.40;;;;;;;11.72;100.00;96771.75;5031190;28;24451;-74
2022/10/18 04:54:38;;;;;;;9.83;2.93;;;;;;;11.65;100.00;96770.38;5026414;28;24532;-75
2022/10/18 04:57:04;;;;;;;9.93;2.70;;;;;;;11.62;100.00;96758.41;5032263;28;24443;-75
2022/10/18 04:59:31;;;;;;;6.60;2.55;;;;;;;11.55;100.00;96767.41;5025739;28;24993;-74
2022/10/18 05:01:57;;;;;;;5.28;2.42;;;;;;;11.49;100.00;96767.72;5028814;28;24432;-75
2022/10/18 05:04:24;;;;;;;10.65;2.83;;;;;;;11.41;100.00;96767.25;5025981;28;25027;-74
2022/10/18 05:06:50;;;;;;;9.43;2.53;;;;;;;11.47;100.00;96772.16;5035206;28;24988;-75
2022/10/18 05:09:21;;;;;;;7.88;2.75;;;;;;;11.45;100.00;96773.13;5027986;28;24432;-75
2022/10/18 05:11:47;;;;;;;5.60;2.33;;;;;;;11.42;100.00;96763.78;5029738;28;24928;-75
2022/10/18 05:14:14;;;;;;;3.60;2.45;;;;;;;11.46;100.00;96772.22;5026253;28;25027;-74
2022/10/18 05:16:40;;;;;;;7.28;2.45;;;;;;;11.47;100.00;96773.91;5034130;28;24442;-74
2022/10/18 05:19:07;;;;;;;6.43;3.10;;;;;;;11.51;100.00;96765.88;5030299;28;24439;-74
2022/10/18 05:21:33;;;;;;;8.77;3.63;;;;;;;11.54;100.00;96770.09;5029050;28;24538;-74
2022/10/18 05:24:00;;;;;;;4.82;2.90;;;;;;;11.52;100.00;96764.13;5034215;28;24443;-73
2022/10/18 05:26:28;;;;;;;14.20;3.58;;;;;;;11.54;100.00;96760.56;5030412;28;24446;-74
2022/10/18 05:28:55;;;;;;;8.90;4.63;;;;;;;11.43;100.00;96762.00;5030011;28;24444;-76
2022/10/18 05:31:21;;;;;;;18.03;5.37;;;;;;;11.29;100.00;96768.72;5032593;28;24428;-76
2022/10/18 05:33:48;;;;;;;14.67;4.80;;;;;;;11.23;100.00;96765.59;5031894;28;24715;-76
2022/10/18 05:36:15;;;;;;;14.07;4.35;;;;;;;11.35;100.00;96767.59;5022851;28;24443;-75
2022/10/18 05:38:42;;;;;;;6.45;3.88;;;;;;;11.35;100.00;96765.00;5019671;28;24455;-74
2022/10/18 05:41:09;;;;;;;8.25;3.92;;;;;;;11.38;100.00;96770.00;5026170;28;24861;-74
2022/10/18 05:43:37;;;;;;;6.70;3.58;;;;;;;11.41;100.00;96761.25;5029703;28;24522;-73
2022/10/18 05:46:04;;;;;;;8.68;4.10;;;;;;;11.44;100.00;96767.13;5030764;28;24439;-73
2022/10/18 05:48:30;;;;;;;5.68;3.60;;;;;;;11.46;100.00;96762.69;5029445;28;24440;-72
2022/10/18 05:50:58;;;;;;;8.43;3.80;;;;;;;11.42;100.00;96760.31;5030644;28;24489;-74
2022/10/18 05:53:25;;;;;;;7.57;4.22;;;;;;;11.39;100.00;96762.16;5028626;28;24440;-74
2022/10/18 05:55:51;;;;;;;7.65;3.90;;;;;;;11.38;100.00;96763.09;5029579;28;24436;-74
2022/10/18 05:58:18;;;;;;;6.83;3.90;;;;;;;11.41;100.00;96764.66;5032781;28;24443;-74
2022/10/18 06:00:46;;;;;;;5.90;3.15;;;;;;;11.50;100.00;96763.38;5026882;28;24455;-75
2022/10/18 06:03:12;;;;;;;8.98;3.33;;;;;;;11.55;100.00;96766.56;5027869;28;24434;-74
2022/10/18 06:05:39;;;;;;;6.97;4.40;;;;;;;11.58;100.00;96763.84;5033058;28;24446;-73
2022/10/18 06:08:05;;;;;;;8.48;4.38;;;;;;;11.71;100.00;96764.88;5036094;28;24527;-75
2022/10/18 06:10:33;;;;;;;9.63;3.55;;;;;;;11.73;100.00;96763.03;5025144;28;24432;-74
2022/10/18 06:12:59;;;;;;;15.73;3.00;;;;;;;11.74;100.00;96764.72;5028434;28;24495;-74
2022/10/18 06:15:26;;;;;;;12.07;3.10;;;;;;;11.72;100.00;96766.56;5030921;28;24993;-74
2022/10/18 06:17:54;;;;;;;6.40;3.20;;;;;;;11.67;100.00;96778.91;5022745;28;24535;-73
2022/10/18 06:20:21;;;;;;;7.03;2.75;;;;;;;11.57;100.00;96775.97;5025321;28;24459;-75
2022/10/18 06:22:47;;;;;;;10.25;3.50;;;;;;;11.55;100.00;96775.19;5028418;28;25003;-73
2022/10/18 06:25:14;;;;;;;7.50;3.17;;;;;;;11.57;100.00;96770.78;5029198;28;24443;-74
2022/10/18 06:27:40;;;;;;;6.60;2.80;;;;;;;11.59;100.00;96768.09;5034718;28;24442;-73
2022/10/18 06:30:08;;;;;;;8.30;3.93;;;;;;;11.67;100.00;96771.13;5033412;28;24432;-74
2022/10/18 06:32:35;;;;;;;8.85;3.80;;;;;;;11.65;100.00;96774.75;5028381;28;24463;-74
2022/10/18 06:35:03;;;;;;;9.52;3.88;;;;;;;11.62;100.00;96763.59;5029401;28;24436;-74
2022/10/18 06:37:30;;;;;;;8.10;4.28;;;;;;;11.65;100.00;96762.59;5032660;28;24447;-74
2022/10/18 06:39:56;;;;;;;15.55;4.78;;;;;;;11.72;100.00;96766.56;5026101;28;25016;-73
2022/10/18 06:42:22;;;;;;;7.93;3.92;;;;;;;11.78;100.00;96763.63;5028223;28;24446;-73
2022/10/18 06:44:49;;;;;;;18.20;4.43;;;;;;;11.92;100.00;96760.34;5031295;28;24436;-73
2022/10/18 06:47:15;;;;;;;7.50;3.78;;;;;;;11.90;100.00;96762.19;5036504;28;24436;-75
2022/10/18 06:49:42;;;;;;;7.03;3.75;;;;;;;11.92;100.00;96773.34;5023935;28;24432;-73
2022/10/18 06:52:10;;;;;;;11.37;4.23;;;;;;;11.91;100.00;96774.28;5033861;28;24443;-73
2022/10/18 06:54:36;;;;;;;6.80;3.50;;;;;;;12.00;100.00;96776.38;5035231;28;24802;-74
2022/10/18 06:57:03;;;;;;;7.20;3.30;;;;;;;12.07;100.00;96775.13;5031951;28;24518;-74
2022/10/18 06:59:29;;;;;;;6.88;3.25;;;;;;;12.06;100.00;96793.41;5024410;28;24455;-74
2022/10/18 07:01:56;;;;;;;10.67;4.60;;;;;;;12.09;100.00;96798.44;5034341;28;24538;-74
2022/10/18 07:04:22;;;;;;;7.60;4.28;;;;;;;12.08;100.00;96796.75;5031374;28;24820;-74
2022/10/18 07:06:49;;;;;;;10.18;3.28;;;;;;;12.14;100.00;96799.03;5030531;28;24443;-74
2022/10/18 07:09:17;;;;;;;7.90;3.42;;;;;;;12.23;100.00;96790.72;5027170;28;24973;-74
2022/10/18 07:11:43;;;;;;;4.70;2.78;;;;;;;12.25;100.00;96793.25;5033222;28;24435;-75
2022/10/18 07:14:10;;;;;;;7.85;3.13;;;;;;;12.23;100.00;96795.94;5029057;28;24431;-74
2022/10/18 07:16:36;;;;;;;11.95;3.08;;;;;;;12.37;100.00;96794.38;5034080;28;24446;-74
2022/10/18 07:19:03;;;;;;;5.55;2.88;;;;;;;12.34;100.00;96795.34;5028345;28;24751;-76
2022/10/18 07:21:30;;;;;;;6.75;3.30;;;;;;;12.39;100.00;96800.34;5033725;28;24474;-74
2022/10/18 07:23:57;;;;;;;6.78;3.28;;;;;;;12.47;100.00;96787.75;5020903;28;24527;-75
2022/10/18 07:26:27;;;;;;;4.28;2.85;;;;;;;12.56;100.00;96784.66;5037300;28;24440;-75
2022/10/18 07:28:56;;;;;;;6.30;3.10;;;;;;;12.63;100.00;96783.38;5032971;28;25012;-73
2022/10/18 07:31:24;;;;;;;6.70;3.30;;;;;;;12.70;100.00;96794.28;5026880;28;24459;-74
2022/10/18 07:33:50;;;;;;;8.40;2.80;;;;;;;12.80;100.00;96780.72;5030799;28;24434;-73
2022/10/18 07:36:17;;;;;;;7.78;2.72;;;;;;;12.88;100.00;96788.09;5034194;28;24443;-74
2022/10/18 07:38:44;;;;;;;5.00;2.65;;;;;;;12.94;100.00;96792.94;5029816;28;24478;-74
2022/10/18 07:41:12;;;;;;;6.13;2.65;;;;;;;12.95;100.00;96796.38;5032968;28;24513;-74
2022/10/18 07:43:43;;;;;;;6.18;3.13;;;;;;;12.99;100.00;96803.09;5027258;28;24432;-74
2022/10/18 07:46:09;;;;;;;5.50;2.72;;;;;;;13.06;100.00;96820.03;5030854;28;24513;-74
2022/10/18 07:48:36;;;;;;;6.45;3.08;;;;;;;13.14;100.00;96819.59;5032851;28;24786;-74
2022/10/18 07:51:03;;;;;;;5.43;2.90;;;;;;;13.21;100.00;96816.56;5030672;28;24436;-74
2022/10/18 07:53:30;;;;;;;4.05;2.63;;;;;;;13.26;100.00;96814.56;5031536;28;24431;-74
2022/10/18 07:55:58;;;;;;;4.88;2.60;;;;;;;13.34;100.00;96810.69;5031467;28;24435;-73
2022/10/18 07:58:25;;;;;;;5.55;2.75;;;;;;;13.39;100.00;96817.31;5028893;28;24485;-73
2022/10/18 08:00:53;;;;;;;3.47;2.80;;;;;;;13.46;100.00;96809.97;5030005;28;24821;-72
2022/10/18 08:03:20;;;;;;;4.93;2.85;;;;;;;13.53;100.00;96814.75;5025930;28;24443;-73
2022/10/18 08:05:51;;;;;;;4.15;2.75;;;;;;;13.61;100.00;96822.13;5031406;28;24443;-74
2022/10/18 08:08:18;;;;;;;7.18;2.80;;;;;;;13.63;100.00;96819.41;5021815;28;25019;-74
2022/10/18 08:10:44;;;;;;;4.65;3.17;;;;;;;13.66;100.00;96824.44;5022600;28;24499;-75
2022/10/18 08:13:11;;;;;;;17.17;3.10;;;;;;;13.67;100.00;96826.13;5023249;28;24443;-73
2022/10/18 08:15:37;;;;;;;5.85;2.92;;;;;;;13.76;100.00;96818.63;5040648;28;25008;-73
2022/10/18 08:18:05;;;;;;;4.00;2.67;;;;;;;13.93;100.00;96816.78;5033650;28;24435;-72
2022/10/18 08:20:32;;;;;;;5.85;3.03;;;;;;;14.02;100.00;96819.69;5031703;28;24471;-75
2022/10/18 08:22:59;;;;;;;6.00;3.10;;;;;;;14.15;100.00;96816.31;5043556;28;24461;-75
2022/10/18 08:25:25;;;;;;;5.28;3.40;;;;;;;14.20;100.00;96811.66;5033521;28;24440;-75
2022/10/18 08:27:52;;;;;;;4.03;2.95;;;;;;;14.35;100.00;96809.88;5033394;28;24435;-76
2022/10/18 08:30:19;;;;;;;6.43;3.35;;;;;;;14.60;100.00;96824.91;5034776;28;24440;-74
2022/10/18 08:32:45;;;;;;;3.63;2.75;;;;;;;14.95;100.00;96823.53;5042036;28;24446;-75
2022/10/18 08:35:13;;;;;;;6.15;3.33;;;;;;;15.39;100.00;96822.44;5031801;28;24806;-76
2022/10/18 08:37:40;;;;;;;5.38;2.97;;;;;;;15.81;100.00;96823.19;5038310;28;24483;-75
2022/10/18 08:40:07;;;;;;;8.10;3.20;;;;;;;16.26;100.00;96821.00;5042076;28;24434;-76
2022/10/18 08:42:51;;;;;;;6.32;3.13;;;;;;;16.70;100.00;96815.28;5029148;28;24442;-73
2022/10/18 08:45:18;;;;;;;8.30;3.15;;;;;;;17.25;100.00;96815.75;5023945;28;24471;-74
2022/10/18 08:47:47;;;;;;;5.28;2.80;;;;;;;17.65;100.00;96812.84;5032079;28;24972;-73
2022/10/18 08:50:18;;;;;;;6.95;3.30;;;;;;;18.00;100.00;96820.69;5033669;28;24439;-75
2022/10/18 08:52:51;;;;;;;5.72;2.72;;;;;;;17.87;100.00;96822.53;5031719;28;24439;-74
2022/10/18 08:55:22;;;;;;;6.30;2.85;;;;;;;17.50;100.00;96827.91;5032093;28;24981;-74
2022/10/18 08:57:50;;;;;;;5.37;2.90;;;;;;;17.17;100.00;96825.97;5028898;28;24443;-74
2022/10/18 09:00:18;;;;;;;7.32;3.08;;;;;;;16.97;100.00;96827.38;5033925;28;24527;-74
2022/10/18 09:03:03;;;;;;;4.63;2.65;;;;;;;16.78;100.00;96827.03;5037868;28;24431;-75
2022/10/18 09:05:42;;;;;;;4.78;2.70;;;;;;;16.72;100.00;96824.78;5028233;28;24444;-73
2022/10/18 09:08:38;;;;;;;9.80;2.83;;;;;;;16.95;100.00;96825.84;5031505;28;24447;-74
2022/10/18 09:11:17;;;;;;;9.50;3.10;;;;;;;17.25;100.00;96823.63;5026976;28;24971;-75
2022/10/18 09:14:10;;;;;;;6.30;2.58;;;;;;;17.48;100.00;96828.94;5024736;28;24440;-73
2022/10/18 09:16:44;;;;;;;7.47;2.67;;;;;;;17.70;100.00;96826.41;5028530;28;24443;-75
2022/10/18 09:19:20;;;;;;;5.43;2.30;;;;;;;17.88;100.00;96834.72;5034192;28;24813;-75
2022/10/18 09:21:52;;;;;;;4.67;2.67;;;;;;;18.18;100.00;96841.22;5035363;28;24531;-74
2022/10/18 09:24:27;;;;;;;5.22;2.85;;;;;;;18.25;100.00;96835.38;5022838;28;24478;-74
2022/10/18 09:26:58;;;;;;;7.33;2.50;;;;;;;18.74;100.00;96839.47;5036466;28;24443;-74
2022/10/18 09:29:49;;;;;;;6.47;2.22;;;;;;;18.79;100.00;96839.94;5033681;28;25008;-72
2022/10/18 09:32:29;;;;;;;6.28;2.63;;;;;;;18.84;100.00;96840.41;5032123;28;24973;-73
2022/10/18 09:34:59;;;;;;;5.33;2.57;;;;;;;18.92;100.00;96839.81;5040198;28;24435;-73
2022/10/18 09:37:30;;;;;;;8.40;2.95;;;;;;;19.11;100.00;96833.91;5024589;28;24432;-74
2022/10/18 09:40:04;;;;;;;5.32;2.60;;;;;;;19.19;100.00;96842.00;5021250;28;24436;-74
2022/10/18 09:42:35;;;;;;;5.30;2.63;;;;;;;19.39;100.00;96840.38;5032750;28;24459;-73
2022/10/18 09:45:06;;;;;;;6.35;2.72;;;;;;;19.47;100.00;96840.63;5034004;28;24897;-73
2022/10/18 09:47:37;;;;;;;7.15;2.65;;;;;;;19.46;100.00;96836.31;5030419;28;24446;-73
2022/10/18 09:50:17;;;;;;;5.85;2.20;;;;;;;19.67;100.00;96838.19;5032757;28;24498;-73
2022/10/18 09:52:51;;;;;;;4.28;2.03;;;;;;;19.52;100.00;96830.56;5025404;28;24439;-73
2022/10/18 09:55:22;;;;;;;6.75;2.10;;;;;;;19.55;100.00;96840.81;5024468;28;24448;-74
2022/10/18 09:57:54;;;;;;;5.93;2.10;;;;;;;19.57;100.00;96838.88;5030044;28;24432;-73
2022/10/18 10:00:25;;;;;;;4.03;1.95;;;;;;;19.61;100.00;96838.63;5026956;28;24436;-74
2022/10/18 10:02:52;;;;;;;6.18;2.50;;;;;;;19.51;100.00;96841.22;5033907;28;24484;-74
2022/10/18 10:05:19;;;;;;;6.57;2.13;;;;;;;19.50;100.00;96837.72;5027665;28;24459;-74
2022/10/18 10:07:49;;;;;;;6.10;2.33;;;;;;;19.58;100.00;96839.75;5035123;28;24436;-74
2022/10/18 10:10:20;;;;;;;5.97;2.20;;;;;;;19.47;100.00;96837.16;5033182;28;24985;-74
2022/10/18 10:12:48;;;;;;;5.32;1.75;;;;;;;19.31;100.00;96846.25;5034569;28;24439;-74
2022/10/18 10:15:21;;;;;;;4.15;1.83;;;;;;;19.31;100.00;96848.88;5026337;28;25019;-74
2022/10/18 10:17:55;;;;;;;3.20;1.37;;;;;;;19.46;100.00;96844.19;5035814;28;24444;-74
2022/10/18 10:20:24;;;;;;;3.75;1.33;;;;;;;19.63;98.26;96842.03;5028183;28;24439;-74
2022/10/18 10:22:53;;;;;;;5.13;1.50;;;;;;;19.86;99.69;96840.13;5035188;28;24463;-74
2022/10/18 10:25:25;;;;;;;4.65;1.50;;;;;;;19.90;96.46;96844.97;5044550;22;24443;-73
2022/10/18 10:27:52;;;;;;;5.60;1.73;;;;;;;19.92;97.58;96845.72;5019318;28;24847;-72
2022/10/18 10:30:24;;;;;;;3.53;1.60;;;;;;;19.99;97.72;96846.03;5025206;28;24443;-73
2022/10/18 10:32:53;;;;;;;3.83;1.67;;;;;;;20.18;96.75;96850.56;5018561;28;24769;-72
2022/10/18 10:35:23;;;;;;;6.72;1.80;;;;;;;20.21;95.04;96843.25;5017991;28;24436;-73
2022/10/18 10:37:53;;;;;;;3.92;1.38;;;;;;;20.28;96.28;96843.56;5024667;28;24908;-73
2022/10/18 10:40:22;;;;;;;3.50;1.50;;;;;;;20.22;94.69;96844.09;5025680;28;24797;-73
2022/10/18 10:43:07;;;;;;;3.58;1.23;;;;;;;20.22;95.39;96844.91;5026305;28;24459;-72
2022/10/18 10:45:36;;;;;;;4.40;1.43;;;;;;;20.30;96.37;96846.91;5022852;28;25094;-73
2022/10/18 10:48:07;;;;;;;4.13;1.40;;;;;;;20.30;95.25;96837.22;5028771;28;24440;-72
2022/10/18 10:50:49;;;;;;;2.80;1.65;;;;;;;20.26;93.56;96842.88;5021539;28;24432;-72
2022/10/18 10:53:30;;;;;;;6.10;1.80;;;;;;;20.16;96.01;96837.53;5021978;28;24490;-72
2022/10/18 10:55:58;;;;;;;3.33;1.60;;;;;;;20.25;98.39;96834.16;5023725;28;24459;-73
2022/10/18 10:58:27;;;;;;;3.40;1.45;;;;;;;20.21;97.19;96839.78;5027487;28;24459;-73
2022/10/18 11:00:56;;;;;;;5.43;1.50;;;;;;;20.12;100.00;96841.41;5026113;28;24443;-73
2022/10/18 11:03:23;;;;;;;5.53;1.80;;;;;;;20.00;98.91;96834.53;5021844;28;24431;-73
2022/10/18 11:05:51;;;;;;;3.65;1.50;;;;;;;19.94;100.00;96838.50;5027536;28;24517;-74
2022/10/18 11:08:21;;;;;;;3.80;1.50;;;;;;;19.89;98.55;96835.44;5021550;28;24436;-74
2022/10/18 11:10:58;;;;;;;3.63;1.30;;;;;;;19.92;97.56;96834.34;5028512;28;24450;-73
2022/10/18 11:13:34;;;;;;;4.50;1.30;;;;;;;19.87;98.47;96842.59;5028264;28;24439;-74
2022/10/18 11:16:07;;;;;;;2.78;1.33;;;;;;;19.85;99.05;96841.91;5026955;28;24526;-74
2022/10/18 11:18:35;;;;;;;4.97;1.40;;;;;;;19.76;99.80;96842.66;5029163;28;25086;-74
2022/10/18 11:21:06;;;;;;;2.83;1.10;;;;;;;19.92;99.99;96845.72;5026924;28;24458;-74
2022/10/18 11:23:35;;;;;;;4.43;1.43;;;;;;;19.91;97.79;96844.03;5016173;28;24503;-74
2022/10/18 11:26:29;;;;;;;15.75;1.60;;;;;;;19.68;96.26;96847.72;5024631;28;25003;-75
2022/10/18 11:29:19;;;;;;;5.57;1.48;;;;;;;19.66;99.35;96854.91;5026208;28;25015;-75
2022/10/18 11:31:54;;;;;;;3.80;1.33;;;;;;;19.57;99.48;96852.03;5025229;28;24439;-74
2022/10/18 11:34:43;;;;;;;7.88;1.38;;;;;;;19.61;100.00;96843.91;5023747;28;24443;-73